| time (UTC) | temp C | wind direction | speed KPH | gust KPH | rain 1hr cm | rain 24hr cm | rain mn cm | humidity % | barometer mb |
| 20260508044012 | 6 | 360 | 0.0 | 0.0 | 0.00 | 0.03 | 0.03 | 93 | 1018.9 |
| 20260508043523 | 6 | 360 | 0.0 | 0.0 | 0.00 | 0.03 | 0.03 | 93 | 1018.7 |
| 20260508043012 | 6 | 360 | 0.0 | 0.0 | 0.03 | 0.03 | 0.03 | 93 | 1018.8 |
| 20260508042515 | 6 | 360 | 0.0 | 0.0 | 0.03 | 0.03 | 0.03 | 93 | 1018.8 |
| 20260508042012 | 6 | 360 | 0.0 | 0.0 | 0.03 | 0.03 | 0.03 | 93 | 1018.8 |
| 20260508041511 | 6 | 360 | 0.0 | 0.0 | 0.03 | 0.03 | 0.03 | 93 | 1018.8 |
| 20260508041011 | 5 | 360 | 0.0 | 0.0 | 0.03 | 0.03 | 0.03 | 93 | 1018.8 |
| 20260508040516 | 5 | 360 | 0.0 | 0.0 | 0.03 | 0.03 | 0.03 | 93 | 1018.8 |
| 20260508040012 | 5 | 360 | 0.0 | 0.0 | 0.03 | 0.03 | 0.03 | 94 | 1018.7 |
| 20260508035510 | 5 | 360 | 0.0 | 0.0 | 0.03 | 0.03 | 0.03 | 93 | 1018.8 |
| 20260508035012 | 5 | 360 | 0.0 | 0.0 | 0.03 | 0.03 | 0.03 | 93 | 1018.8 |
| 20260508034510 | 5 | 360 | 0.0 | 0.0 | 0.03 | 0.03 | 0.03 | 93 | 1018.7 |
| 20260508034010 | 5 | 360 | 0.0 | 0.0 | 0.03 | 0.03 | 0.03 | 93 | 1018.7 |
| 20260508033514 | 5 | 360 | 0.0 | 0.0 | 0.03 | 0.03 | 0.03 | 93 | 1018.6 |
| 20260508033010 | 5 | 360 | 0.0 | 0.0 | 0.00 | 0.00 | 0.00 | 93 | 1018.6 |
| 20260508032509 | 5 | 360 | 0.0 | 0.0 | 0.00 | 0.00 | 0.00 | 93 | 1018.6 |
| 20260508032012 | 5 | 360 | 0.0 | 0.0 | 0.00 | 0.00 | 0.00 | 93 | 1018.6 |
| 20260508031508 | 4 | 360 | 0.0 | 0.0 | 0.00 | 0.00 | 0.00 | 93 | 1018.5 |
| 20260508031008 | 4 | 360 | 0.0 | 0.0 | 0.00 | 0.00 | 0.00 | 93 | 1018.5 |
| 20260508030508 | 5 | 360 | 0.0 | 0.0 | 0.00 | 0.00 | 0.00 | 93 | 1018.5 |
| 20260508030008 | 5 | 360 | 0.0 | 0.0 | 0.00 | 0.00 | 0.00 | 93 | 1018.5 |
| 20260508025607 | 5 | 360 | 0.0 | 0.0 | 0.00 | 0.00 | 0.00 | 93 | 1018.5 |
| 20260508025008 | 5 | 360 | 0.0 | 0.0 | 0.00 | 0.00 | 0.00 | 93 | 1018.4 |
| 20260508024507 | 5 | 360 | 0.0 | 0.0 | 0.00 | 0.00 | 0.00 | 93 | 1018.4 |
| 20260508024004 | 5 | 360 | 0.0 | 0.0 | 0.00 | 0.00 | 0.00 | 93 | 1018.5 |
| 20260508023504 | 5 | 360 | 0.0 | 0.0 | 0.00 | 0.00 | 0.00 | 93 | 1018.5 |
| 20260508023003 | 5 | 360 | 0.0 | 0.0 | 0.00 | 0.00 | 0.00 | 93 | 1018.6 |
| 20260508022503 | 5 | 360 | 0.0 | 0.0 | 0.00 | 0.00 | 0.00 | 93 | 1018.6 |
| 20260508022003 | 5 | 360 | 0.0 | 0.0 | 0.00 | 0.00 | 0.00 | 93 | 1018.6 |
| 20260508021502 | 5 | 360 | 0.0 | 0.0 | 0.00 | 0.00 | 0.00 | 93 | 1018.5 |
| 20260508021002 | 5 | 360 | 0.0 | 0.0 | 0.00 | 0.00 | 0.00 | 93 | 1018.6 |
| 20260508020502 | 5 | 360 | 0.0 | 0.0 | 0.00 | 0.00 | 0.00 | 92 | 1018.5 |
| 20260508020002 | 5 | 360 | 0.0 | 0.0 | 0.00 | 0.00 | 0.00 | 93 | 1018.6 |
| 20260508015502 | 5 | 360 | 0.0 | 0.0 | 0.00 | 0.00 | 0.00 | 92 | 1018.6 |
| 20260508015002 | 5 | 360 | 0.0 | 0.0 | 0.00 | 0.00 | 0.00 | 93 | 1018.5 |
| 20260508014601 | 5 | 360 | 0.0 | 0.0 | 0.00 | 0.00 | 0.00 | 92 | 1018.6 |
| 20260508014102 | 6 | 360 | 0.0 | 0.0 | 0.00 | 0.00 | 0.00 | 92 | 1018.6 |
| 20260508013600 | 6 | 360 | 0.0 | 0.0 | 0.00 | 0.00 | 0.00 | 92 | 1018.4 |
| 20260508013058 | 6 | 360 | 0.0 | 0.0 | 0.00 | 0.00 | 0.00 | 92 | 1018.6 |
| 20260508012557 | 6 | 360 | 0.0 | 0.0 | 0.00 | 0.00 | 0.00 | 92 | 1018.6 |
| 20260508012057 | 6 | 360 | 0.0 | 1.6 | 0.00 | 0.00 | 0.00 | 92 | 1018.6 |
| 20260508011557 | 6 | 360 | 0.0 | 1.6 | 0.00 | 0.00 | 0.00 | 92 | 1018.6 |
| 20260508011056 | 6 | 360 | 0.0 | 1.6 | 0.00 | 0.00 | 0.00 | 92 | 1018.6 |
| 20260508010557 | 6 | 360 | 0.0 | 0.0 | 0.00 | 0.00 | 0.00 | 92 | 1018.6 |
| 20260508010056 | 6 | 360 | 0.0 | 0.0 | 0.00 | 0.00 | 0.00 | 92 | 1018.6 |
| 20260508005556 | 6 | 360 | 0.0 | 1.6 | 0.00 | 0.00 | 0.00 | 92 | 1018.5 |
| 20260508005057 | 6 | 360 | 0.0 | 3.2 | 0.00 | 0.00 | 0.00 | 92 | 1018.5 |
| 20260508004609 | 6 | 360 | 1.6 | 3.2 | 0.00 | 0.00 | 0.00 | 92 | 1018.5 |
| 20260508004053 | 6 | 360 | 0.0 | 3.2 | 0.00 | 0.00 | 0.00 | 92 | 1018.6 |
| 20260508003552 | 6 | 360 | 1.6 | 3.2 | 0.00 | 0.00 | 0.00 | 92 | 1018.6 |
| 20260508003052 | 6 | 360 | 0.0 | 3.2 | 0.00 | 0.00 | 0.00 | 91 | 1018.6 |
| 20260508002550 | 6 | 360 | 0.0 | 1.6 | 0.00 | 0.00 | 0.00 | 91 | 1018.5 |
| 20260508002049 | 7 | 360 | 0.0 | 1.6 | 0.00 | 0.00 | 0.00 | 91 | 1018.6 |
| 20260508001548 | 7 | 360 | 0.0 | 3.2 | 0.00 | 0.00 | 0.00 | 91 | 1018.6 |
| 20260508001048 | 7 | 360 | 1.6 | 4.8 | 0.00 | 0.00 | 0.00 | 91 | 1018.6 |
| 20260508000548 | 7 | 360 | 1.6 | 4.8 | 0.00 | 0.00 | 0.00 | 91 | 1018.6 |
| 20260508000048 | 7 | 360 | 1.6 | 6.4 | 0.00 | 0.00 | 0.00 | 90 | 1018.6 |
| 20260507235545 | 7 | 11 | 3.2 | 4.8 | 0.00 | 0.00 | 0.00 | 90 | 1018.6 |
| 20260507235045 | 7 | 11 | 1.6 | 4.8 | 0.00 | 0.00 | 0.00 | 90 | 1018.7 |
| 20260507234544 | 7 | 10 | 0.0 | 4.8 | 0.00 | 0.00 | 0.00 | 90 | 1018.7 |
| 20260507234042 | 8 | 10 | 1.6 | 4.8 | 0.00 | 0.00 | 0.00 | 90 | 1018.6 |
| 20260507233545 | 8 | 10 | 0.0 | 4.8 | 0.00 | 0.00 | 0.00 | 89 | 1018.6 |
| 20260507233041 | 8 | 10 | 1.6 | 4.8 | 0.00 | 0.00 | 0.00 | 89 | 1018.6 |
| 20260507232539 | 8 | 10 | 1.6 | 4.8 | 0.00 | 0.00 | 0.00 | 89 | 1018.6 |
| 20260507232038 | 8 | 10 | 1.6 | 4.8 | 0.00 | 0.00 | 0.00 | 88 | 1018.6 |
| 20260507231543 | 8 | 12 | 0.0 | 4.8 | 0.00 | 0.00 | 0.00 | 88 | 1018.6 |
| 20260507231037 | 8 | 13 | 1.6 | 4.8 | 0.00 | 0.00 | 0.00 | 88 | 1018.7 |
| 20260507230537 | 8 | 13 | 1.6 | 4.8 | 0.00 | 0.00 | 0.00 | 88 | 1018.7 |
| 20260507230036 | 8 | 360 | 0.0 | 6.4 | 0.00 | 0.00 | 0.00 | 87 | 1018.7 |
| 20260507225535 | 9 | 360 | 1.6 | 6.4 | 0.00 | 0.00 | 0.00 | 87 | 1018.7 |
| 20260507225035 | 9 | 360 | 3.2 | 6.4 | 0.00 | 0.00 | 0.00 | 87 | 1018.6 |
| 20260507224536 | 9 | 9 | 1.6 | 4.8 | 0.00 | 0.00 | 0.00 | 87 | 1018.7 |
| 20260507224038 | 9 | 10 | 1.6 | 6.4 | 0.00 | 0.00 | 0.00 | 87 | 1018.7 |
| 20260507223534 | 9 | 11 | 3.2 | 6.4 | 0.00 | 0.00 | 0.00 | 87 | 1018.8 |
| 20260507223033 | 9 | 5 | 1.6 | 6.4 | 0.00 | 0.00 | 0.00 | 88 | 1018.7 |
| 20260507222533 | 9 | 5 | 3.2 | 6.4 | 0.00 | 0.00 | 0.00 | 88 | 1018.7 |
| 20260507222034 | 9 | 9 | 3.2 | 6.4 | 0.00 | 0.00 | 0.00 | 87 | 1018.7 |
| 20260507221533 | 9 | 5 | 3.2 | 6.4 | 0.00 | 0.00 | 0.00 | 87 | 1018.6 |
| 20260507221030 | 9 | 5 | 1.6 | 6.4 | 0.00 | 0.00 | 0.00 | 87 | 1018.6 |
| 20260507220530 | 10 | 5 | 3.2 | 6.4 | 0.00 | 0.00 | 0.00 | 87 | 1018.5 |
| 20260507220029 | 10 | 5 | 1.6 | 4.8 | 0.00 | 0.00 | 0.00 | 87 | 1018.5 |
| 20260507215529 | 10 | 5 | 1.6 | 4.8 | 0.00 | 0.00 | 0.00 | 87 | 1018.5 |
| 20260507215027 | 10 | 5 | 1.6 | 4.8 | 0.00 | 0.00 | 0.00 | 87 | 1018.4 |
| 20260507214530 | 10 | 5 | 1.6 | 4.8 | 0.00 | 0.00 | 0.00 | 87 | 1018.3 |
| 20260507214027 | 10 | 5 | 1.6 | 4.8 | 0.00 | 0.00 | 0.00 | 87 | 1018.3 |
| 20260507213529 | 10 | 5 | 1.6 | 6.4 | 0.00 | 0.00 | 0.00 | 87 | 1018.4 |
| 20260507213027 | 10 | 5 | 3.2 | 6.4 | 0.00 | 0.00 | 0.00 | 87 | 1018.2 |
| 20260507212526 | 10 | 9 | 3.2 | 4.8 | 0.00 | 0.00 | 0.00 | 87 | 1018.2 |
| 20260507212026 | 10 | 360 | 1.6 | 4.8 | 0.00 | 0.00 | 0.00 | 86 | 1018.1 |
| 20260507211526 | 10 | 360 | 1.6 | 6.4 | 0.00 | 0.00 | 0.00 | 86 | 1018.1 |
| 20260507211026 | 10 | 360 | 1.6 | 6.4 | 0.00 | 0.00 | 0.00 | 86 | 1018.1 |
| 20260507210525 | 10 | 5 | 1.6 | 8.0 | 0.00 | 0.00 | 0.00 | 86 | 1018.1 |
| 20260507210038 | 10 | 5 | 1.6 | 8.0 | 0.00 | 0.00 | 0.00 | 86 | 1018.1 |
| 20260507205525 | 10 | 5 | 1.6 | 6.4 | 0.00 | 0.00 | 0.00 | 86 | 1018.1 |
| 20260507205024 | 10 | 5 | 1.6 | 6.4 | 0.00 | 0.00 | 0.00 | 86 | 1018.1 |
| 20260507204525 | 10 | 5 | 1.6 | 6.4 | 0.00 | 0.00 | 0.00 | 86 | 1018.0 |
| 20260507204027 | 10 | 5 | 1.6 | 6.4 | 0.00 | 0.00 | 0.00 | 86 | 1018.1 |
| 20260507203524 | 10 | 360 | 3.2 | 8.0 | 0.00 | 0.00 | 0.00 | 86 | 1018.0 |
| 20260507203022 | 10 | 345 | 3.2 | 8.0 | 0.00 | 0.00 | 0.00 | 86 | 1017.9 |
| 20260507202523 | 10 | 5 | 3.2 | 6.4 | 0.00 | 0.00 | 0.00 | 86 | 1017.9 |
| 20260507202023 | 10 | 5 | 3.2 | 6.4 | 0.00 | 0.00 | 0.00 | 86 | 1017.9 |
| 20260507201523 | 10 | 10 | 1.6 | 6.4 | 0.00 | 0.00 | 0.00 | 86 | 1017.8 |
| 20260507201022 | 10 | 10 | 1.6 | 6.4 | 0.00 | 0.00 | 0.00 | 86 | 1017.8 |
| 20260507200522 | 10 | 19 | 3.2 | 6.4 | 0.00 | 0.00 | 0.00 | 86 | 1017.8 |
| 20260507200021 | 11 | 19 | 1.6 | 8.0 | 0.00 | 0.00 | 0.00 | 86 | 1017.8 |
| 20260507195521 | 11 | 20 | 3.2 | 8.0 | 0.00 | 0.00 | 0.00 | 86 | 1017.8 |
| 20260507195021 | 11 | 355 | 1.6 | 4.8 | 0.00 | 0.00 | 0.00 | 85 | 1017.8 |
| 20260507194521 | 11 | 355 | 1.6 | 8.0 | 0.00 | 0.00 | 0.00 | 85 | 1017.7 |
| 20260507194021 | 11 | 12 | 1.6 | 8.0 | 0.00 | 0.00 | 0.00 | 85 | 1017.7 |
| 20260507193519 | 11 | 13 | 3.2 | 8.0 | 0.00 | 0.00 | 0.00 | 85 | 1017.6 |
| 20260507193019 | 11 | 28 | 1.6 | 4.8 | 0.00 | 0.00 | 0.00 | 85 | 1017.5 |
| 20260507192519 | 11 | 28 | 1.6 | 6.4 | 0.00 | 0.00 | 0.00 | 84 | 1017.4 |
| 20260507192021 | 11 | 28 | 1.6 | 8.0 | 0.00 | 0.00 | 0.00 | 84 | 1017.3 |
| 20260507191519 | 11 | 18 | 3.2 | 8.0 | 0.00 | 0.00 | 0.00 | 84 | 1017.3 |
| 20260507191017 | 11 | 49 | 1.6 | 6.4 | 0.00 | 0.00 | 0.00 | 84 | 1017.2 |
| 20260507190518 | 11 | 49 | 0.0 | 6.4 | 0.00 | 0.00 | 0.00 | 84 | 1017.2 |
| 20260507190017 | 11 | 49 | 1.6 | 8.0 | 0.00 | 0.00 | 0.00 | 83 | 1017.1 |
| 20260507185516 | 11 | 53 | 3.2 | 8.0 | 0.00 | 0.03 | 0.00 | 83 | 1017.1 |
| 20260507185020 | 11 | 52 | 1.6 | 6.4 | 0.00 | 0.03 | 0.00 | 84 | 1017.1 |
| 20260507184518 | 11 | 51 | 0.0 | 6.4 | 0.00 | 0.03 | 0.00 | 84 | 1016.9 |
| 20260507184016 | 12 | 51 | 1.6 | 4.8 | 0.00 | 0.03 | 0.00 | 83 | 1016.9 |
| 20260507183514 | 12 | 51 | 1.6 | 4.8 | 0.00 | 0.03 | 0.00 | 83 | 1016.9 |
| 20260507183014 | 12 | 51 | 0.0 | 6.4 | 0.00 | 0.03 | 0.00 | 82 | 1016.9 |
| 20260507182514 | 12 | 51 | 1.6 | 6.4 | 0.00 | 0.03 | 0.00 | 82 | 1016.8 |
| 20260507182014 | 12 | 49 | 1.6 | 6.4 | 0.00 | 0.03 | 0.00 | 80 | 1016.8 |
| 20260507181513 | 12 | 84 | 1.6 | 6.4 | 0.00 | 0.03 | 0.00 | 80 | 1016.7 |
| 20260507181015 | 12 | 88 | 0.0 | 4.8 | 0.00 | 0.03 | 0.00 | 79 | 1016.7 |
| 20260507180514 | 12 | 88 | 0.0 | 4.8 | 0.00 | 0.03 | 0.00 | 79 | 1016.7 |
| 20260507180013 | 12 | 88 | 0.0 | 4.8 | 0.00 | 0.03 | 0.00 | 80 | 1016.7 |
| 20260507175513 | 12 | 88 | 0.0 | 4.8 | 0.00 | 0.05 | 0.00 | 80 | 1016.8 |
| 20260507175014 | 12 | 88 | 1.6 | 4.8 | 0.00 | 0.05 | 0.00 | 79 | 1016.7 |
| 20260507174513 | 12 | 88 | 0.0 | 4.8 | 0.00 | 0.05 | 0.00 | 80 | 1016.6 |
| 20260507174013 | 12 | 88 | 0.0 | 3.2 | 0.00 | 0.05 | 0.00 | 80 | 1016.6 |
| 20260507173514 | 12 | 88 | 0.0 | 4.8 | 0.00 | 0.05 | 0.00 | 80 | 1016.6 |
| 20260507173011 | 12 | 88 | 0.0 | 4.8 | 0.00 | 0.05 | 0.00 | 79 | 1016.6 |
| 20260507172510 | 12 | 88 | 0.0 | 1.6 | 0.00 | 0.05 | 0.00 | 81 | 1016.5 |
| 20260507172010 | 12 | 88 | 0.0 | 1.6 | 0.00 | 0.05 | 0.00 | 81 | 1016.5 |
| 20260507171510 | 12 | 88 | 0.0 | 3.2 | 0.00 | 0.05 | 0.00 | 83 | 1016.4 |
| 20260507171010 | 12 | 88 | 0.0 | 4.8 | 0.00 | 0.05 | 0.00 | 83 | 1016.5 |
| 20260507170510 | 12 | 88 | 1.6 | 4.8 | 0.00 | 0.05 | 0.00 | 84 | 1016.5 |
| 20260507170012 | 12 | 88 | 1.6 | 4.8 | 0.00 | 0.05 | 0.00 | 84 | 1016.4 |
| 20260507165509 | 12 | 86 | 1.6 | 4.8 | 0.00 | 0.05 | 0.00 | 83 | 1016.3 |
| 20260507165009 | 12 | 85 | 1.6 | 3.2 | 0.00 | 0.05 | 0.00 | 83 | 1016.3 |
| 20260507164509 | 12 | 85 | 1.6 | 3.2 | 0.00 | 0.05 | 0.00 | 83 | 1016.4 |
| 20260507164009 | 12 | 85 | 0.0 | 3.2 | 0.00 | 0.05 | 0.00 | 83 | 1016.3 |
| 20260507163508 | 12 | 85 | 0.0 | 0.0 | 0.00 | 0.05 | 0.00 | 83 | 1016.3 |
| 20260507163008 | 12 | 85 | 0.0 | 1.6 | 0.00 | 0.05 | 0.00 | 84 | 1016.2 |
| 20260507162509 | 12 | 85 | 0.0 | 3.2 | 0.00 | 0.05 | 0.00 | 83 | 1016.3 |
| 20260507162007 | 12 | 85 | 0.0 | 4.8 | 0.00 | 0.05 | 0.00 | 82 | 1016.3 |
| 20260507161507 | 12 | 85 | 1.6 | 4.8 | 0.00 | 0.05 | 0.00 | 82 | 1016.3 |
| 20260507161008 | 12 | 85 | 0.0 | 3.2 | 0.00 | 0.05 | 0.00 | 80 | 1016.3 |
| 20260507160509 | 12 | 85 | 0.0 | 3.2 | 0.00 | 0.05 | 0.00 | 79 | 1016.1 |
| 20260507160007 | 12 | 85 | 0.0 | 1.6 | 0.00 | 0.05 | 0.00 | 80 | 1016.1 |
| 20260507155510 | 12 | 85 | 0.0 | 3.2 | 0.00 | 0.05 | 0.00 | 79 | 1016.1 |
| 20260507155006 | 12 | 85 | 1.6 | 3.2 | 0.00 | 0.05 | 0.00 | 77 | 1016.1 |
| 20260507154509 | 12 | 85 | 0.0 | 3.2 | 0.00 | 0.05 | 0.00 | 78 | 1016.1 |
| 20260507154008 | 12 | 85 | 0.0 | 3.2 | 0.00 | 0.05 | 0.00 | 77 | 1016.1 |
| 20260507153505 | 12 | 85 | 0.0 | 3.2 | 0.00 | 0.05 | 0.00 | 77 | 1016.0 |
| 20260507153008 | 12 | 85 | 0.0 | 4.8 | 0.00 | 0.05 | 0.00 | 77 | 1016.0 |
| 20260507152506 | 12 | 85 | 1.6 | 4.8 | 0.00 | 0.05 | 0.00 | 77 | 1016.0 |
| 20260507152006 | 12 | 85 | 0.0 | 4.8 | 0.00 | 0.05 | 0.00 | 76 | 1016.1 |
| 20260507151505 | 13 | 85 | 1.6 | 4.8 | 0.00 | 0.05 | 0.00 | 77 | 1016.1 |
| 20260507151003 | 13 | 85 | 0.0 | 4.8 | 0.00 | 0.05 | 0.00 | 78 | 1016.1 |
| 20260507150504 | 13 | 85 | 1.6 | 6.4 | 0.00 | 0.05 | 0.00 | 77 | 1015.9 |
| 20260507150004 | 13 | 85 | 1.6 | 6.4 | 0.00 | 0.05 | 0.00 | 76 | 1016.0 |
| 20260507145504 | 13 | 85 | 1.6 | 6.4 | 0.00 | 0.33 | 0.00 | 75 | 1015.9 |
| 20260507145005 | 13 | 82 | 3.2 | 6.4 | 0.00 | 0.33 | 0.00 | 76 | 1015.9 |
| 20260507144506 | 13 | 82 | 1.6 | 6.4 | 0.00 | 0.33 | 0.00 | 77 | 1015.8 |
| 20260507144003 | 12 | 82 | 1.6 | 6.4 | 0.00 | 0.33 | 0.00 | 77 | 1015.9 |
| 20260507143504 | 12 | 82 | 1.6 | 8.0 | 0.00 | 0.33 | 0.00 | 77 | 1015.8 |
| 20260507143004 | 12 | 82 | 1.6 | 8.0 | 0.00 | 0.33 | 0.00 | 77 | 1015.8 |
| 20260507142503 | 12 | 78 | 1.6 | 8.0 | 0.00 | 0.33 | 0.00 | 77 | 1015.8 |
| 20260507142002 | 12 | 34 | 3.2 | 9.7 | 0.00 | 0.33 | 0.00 | 77 | 1015.9 |
| 20260507141501 | 13 | 92 | 3.2 | 6.4 | 0.00 | 0.33 | 0.00 | 77 | 1015.8 |
| 20260507141002 | 13 | 162 | 3.2 | 8.0 | 0.00 | 0.33 | 0.00 | 77 | 1015.8 |
| 20260507140504 | 13 | 165 | 1.6 | 4.8 | 0.00 | 0.33 | 0.00 | 77 | 1015.8 |
| 20260507140006 | 13 | 165 | 1.6 | 3.2 | 0.00 | 0.33 | 0.00 | 77 | 1015.7 |
| 20260507135502 | 13 | 165 | 0.0 | 3.2 | 0.00 | 0.33 | 0.00 | 78 | 1015.7 |
| 20260507135001 | 13 | 165 | 0.0 | 3.2 | 0.00 | 0.33 | 0.00 | 79 | 1015.8 |
| 20260507134602 | 13 | 165 | 0.0 | 3.2 | 0.00 | 0.33 | 0.00 | 81 | 1015.7 |
| 20260507134101 | 12 | 165 | 0.0 | 3.2 | 0.00 | 0.33 | 0.00 | 79 | 1015.7 |
| 20260507133559 | 12 | 165 | 1.6 | 3.2 | 0.00 | 0.33 | 0.00 | 78 | 1015.6 |
| 20260507133108 | 12 | 165 | 0.0 | 3.2 | 0.00 | 0.33 | 0.00 | 78 | 1015.6 |
| 20260507132558 | 12 | 165 | 0.0 | 1.6 | 0.00 | 0.33 | 0.00 | 78 | 1015.6 |
| 20260507132058 | 12 | 165 | 0.0 | 3.2 | 0.00 | 0.33 | 0.00 | 79 | 1015.6 |
| 20260507131612 | 12 | 165 | 0.0 | 3.2 | 0.00 | 0.33 | 0.00 | 78 | 1015.5 |
| 20260507131057 | 13 | 165 | 0.0 | 8.0 | 0.00 | 0.33 | 0.00 | 76 | 1015.4 |
| 20260507130556 | 12 | 165 | 1.6 | 11.3 | 0.00 | 0.33 | 0.00 | 77 | 1015.4 |
| 20260507130056 | 13 | 168 | 4.8 | 11.3 | 0.00 | 0.33 | 0.00 | 79 | 1015.4 |
| 20260507125556 | 13 | 96 | 1.6 | 3.2 | 0.00 | 0.33 | 0.00 | 78 | 1015.3 |
| 20260507125055 | 13 | 96 | 0.0 | 6.4 | 0.00 | 0.33 | 0.00 | 78 | 1015.4 |
| 20260507124557 | 12 | 96 | 1.6 | 6.4 | 0.00 | 0.33 | 0.00 | 79 | 1015.4 |
| 20260507124055 | 12 | 96 | 0.0 | 4.8 | 0.00 | 0.33 | 0.00 | 79 | 1015.3 |
| 20260507123555 | 12 | 96 | 3.2 | 6.4 | 0.00 | 0.33 | 0.00 | 78 | 1015.3 |
| 20260507123054 | 12 | 96 | 1.6 | 6.4 | 0.00 | 0.33 | 0.00 | 77 | 1015.3 |
| 20260507122553 | 12 | 96 | 1.6 | 6.4 | 0.00 | 0.33 | 0.00 | 79 | 1015.2 |
| 20260507122053 | 12 | 96 | 3.2 | 6.4 | 0.00 | 0.33 | 0.00 | 78 | 1015.1 |
| 20260507121553 | 12 | 94 | 1.6 | 9.7 | 0.00 | 0.33 | 0.00 | 78 | 1015.1 |
| 20260507121053 | 12 | 94 | 3.2 | 9.7 | 0.00 | 0.33 | 0.00 | 77 | 1015.1 |
| 20260507120553 | 13 | 94 | 3.2 | 9.7 | 0.00 | 0.33 | 0.00 | 75 | 1015.1 |
| 20260507120053 | 13 | 14 | 1.6 | 6.4 | 0.00 | 0.33 | 0.00 | 75 | 1015.0 |
| 20260507115553 | 13 | 81 | 1.6 | 9.7 | 0.00 | 0.33 | 0.00 | 74 | 1015.1 |
| 20260507115052 | 13 | 78 | 1.6 | 12.9 | 0.00 | 0.33 | 0.00 | 74 | 1015.1 |
| 20260507114553 | 13 | 355 | 3.2 | 12.9 | 0.00 | 0.33 | 0.00 | 74 | 1015.1 |
| 20260507114052 | 13 | 320 | 3.2 | 9.7 | 0.00 | 0.33 | 0.00 | 73 | 1015.0 |
| 20260507113551 | 13 | 46 | 3.2 | 9.7 | 0.00 | 0.33 | 0.00 | 72 | 1015.0 |
| 20260507113053 | 13 | 13 | 3.2 | 9.7 | 0.00 | 0.33 | 0.00 | 72 | 1015.1 |
| 20260507112553 | 13 | 72 | 3.2 | 9.7 | 0.00 | 0.33 | 0.00 | 73 | 1015.0 |
| 20260507112053 | 13 | 336 | 4.8 | 9.7 | 0.00 | 0.33 | 0.00 | 73 | 1015.0 |
| 20260507111550 | 13 | 343 | 3.2 | 9.7 | 0.00 | 0.33 | 0.00 | 75 | 1015.0 |
| 20260507111051 | 13 | 347 | 3.2 | 14.5 | 0.00 | 0.33 | 0.00 | 75 | 1015.0 |
| 20260507110548 | 13 | 355 | 4.8 | 14.5 | 0.00 | 0.33 | 0.00 | 75 | 1015.0 |
| 20260507110049 | 13 | 341 | 4.8 | 9.7 | 0.00 | 0.33 | 0.00 | 74 | 1014.9 |
| 20260507105547 | 13 | 344 | 4.8 | 9.7 | 0.00 | 0.33 | 0.00 | 76 | 1014.9 |
| 20260507105047 | 13 | 344 | 3.2 | 12.9 | 0.00 | 0.33 | 0.00 | 77 | 1015.0 |
| 20260507104548 | 12 | 30 | 4.8 | 12.9 | 0.00 | 0.33 | 0.00 | 76 | 1015.1 |
| 20260507104047 | 13 | 336 | 4.8 | 9.7 | 0.00 | 0.33 | 0.00 | 78 | 1015.1 |
| 20260507103544 | 12 | 355 | 4.8 | 9.7 | 0.00 | 0.33 | 0.00 | 78 | 1015.0 |
| 20260507103044 | 12 | 348 | 4.8 | 12.9 | 0.00 | 0.33 | 0.00 | 79 | 1015.1 |
| 20260507102542 | 12 | 337 | 4.8 | 12.9 | 0.00 | 0.33 | 0.00 | 79 | 1015.0 |
| 20260507102042 | 12 | 333 | 1.6 | 6.4 | 0.00 | 0.33 | 0.00 | 82 | 1014.9 |
| 20260507101541 | 12 | 333 | 3.2 | 8.0 | 0.00 | 0.33 | 0.00 | 82 | 1014.9 |
| 20260507101040 | 12 | 333 | 3.2 | 8.0 | 0.00 | 0.33 | 0.00 | 82 | 1014.9 |
| 20260507100539 | 11 | 331 | 1.6 | 8.0 | 0.00 | 0.33 | 0.00 | 83 | 1014.8 |
| 20260507100045 | 11 | 325 | 1.6 | 4.8 | 0.00 | 0.33 | 0.00 | 84 | 1014.8 |
| 20260507095537 | 11 | 325 | 0.0 | 4.8 | 0.00 | 0.33 | 0.00 | 84 | 1014.8 |
| 20260507095036 | 11 | 325 | 0.0 | 3.2 | 0.00 | 0.33 | 0.00 | 85 | 1014.6 |
| 20260507094536 | 11 | 325 | 0.0 | 3.2 | 0.00 | 0.33 | 0.00 | 85 | 1014.7 |
| 20260507094038 | 11 | 325 | 0.0 | 6.4 | 0.00 | 0.33 | 0.00 | 85 | 1014.6 |
| 20260507093535 | 11 | 325 | 3.2 | 6.4 | 0.00 | 0.33 | 0.00 | 85 | 1014.5 |
| 20260507093038 | 11 | 325 | 0.0 | 8.0 | 0.00 | 0.33 | 0.00 | 85 | 1014.4 |
| 20260507092534 | 11 | 325 | 3.2 | 8.0 | 0.00 | 0.33 | 0.00 | 85 | 1014.6 |
| 20260507092032 | 11 | 325 | 1.6 | 8.0 | 0.00 | 0.33 | 0.00 | 85 | 1014.5 |
| 20260507091534 | 11 | 324 | 1.6 | 6.4 | 0.00 | 0.33 | 0.00 | 86 | 1014.4 |
| 20260507091031 | 11 | 324 | 0.0 | 8.0 | 0.00 | 0.33 | 0.00 | 87 | 1014.4 |
| 20260507090530 | 11 | 324 | 3.2 | 8.0 | 0.00 | 0.33 | 0.00 | 87 | 1014.3 |
| 20260507090031 | 11 | 321 | 1.6 | 6.4 | 0.00 | 0.33 | 0.00 | 88 | 1014.3 |
| 20260507085530 | 10 | 321 | 3.2 | 6.4 | 0.00 | 0.33 | 0.00 | 88 | 1014.2 |
| 20260507085030 | 10 | 321 | 1.6 | 8.0 | 0.00 | 0.33 | 0.00 | 87 | 1014.3 |
| 20260507084529 | 10 | 319 | 1.6 | 8.0 | 0.00 | 0.33 | 0.00 | 87 | 1014.2 |
| 20260507084029 | 11 | 338 | 1.6 | 8.0 | 0.00 | 0.33 | 0.00 | 87 | 1014.2 |
| 20260507083529 | 10 | 338 | 1.6 | 8.0 | 0.00 | 0.33 | 0.00 | 88 | 1014.3 |
| 20260507083029 | 10 | 339 | 3.2 | 8.0 | 0.00 | 0.33 | 0.00 | 87 | 1014.2 |
| 20260507082528 | 10 | 339 | 0.0 | 8.0 | 0.00 | 0.33 | 0.00 | 88 | 1014.2 |
| 20260507082028 | 10 | 339 | 3.2 | 12.9 | 0.00 | 0.33 | 0.00 | 88 | 1014.1 |
| 20260507081527 | 11 | 333 | 0.0 | 8.0 | 0.00 | 0.33 | 0.00 | 88 | 1014.1 |
| 20260507081027 | 11 | 331 | 0.0 | 8.0 | 0.00 | 0.33 | 0.00 | 88 | 1014.1 |
| 20260507080527 | 11 | 333 | 1.6 | 8.0 | 0.00 | 0.33 | 0.00 | 89 | 1014.0 |
| 20260507080032 | 11 | 333 | 1.6 | 8.0 | 0.00 | 0.33 | 0.00 | 88 | 1014.0 |
| 20260507075525 | 11 | 333 | 1.6 | 6.4 | 0.00 | 0.33 | 0.00 | 89 | 1013.9 |
| 20260507075022 | 11 | 333 | 0.0 | 4.8 | 0.00 | 0.33 | 0.00 | 90 | 1013.8 |
| 20260507074521 | 10 | 333 | 1.6 | 9.7 | 0.00 | 0.33 | 0.00 | 90 | 1013.9 |
| 20260507074021 | 10 | 324 | 1.6 | 9.7 | 0.00 | 0.33 | 0.00 | 91 | 1013.7 |
| 20260507073520 | 10 | 315 | 0.0 | 4.8 | 0.00 | 0.33 | 0.00 | 91 | 1013.7 |
| 20260507073019 | 10 | 337 | 1.6 | 3.2 | 0.00 | 0.33 | 0.00 | 90 | 1013.7 |
| 20260507072519 | 10 | 337 | 1.6 | 6.4 | 0.00 | 0.33 | 0.00 | 91 | 1013.6 |
| 20260507072018 | 10 | 337 | 0.0 | 6.4 | 0.00 | 0.33 | 0.00 | 91 | 1013.5 |
| 20260507071548 | 10 | 337 | 0.0 | 8.0 | 0.00 | 0.33 | 0.00 | 91 | 1013.4 |
| 20260507071018 | 10 | 337 | 1.6 | 8.0 | 0.00 | 0.33 | 0.00 | 91 | 1013.4 |
| 20260507070518 | 9 | 337 | 3.2 | 8.0 | 0.00 | 0.33 | 0.00 | 91 | 1013.4 |
| 20260507070017 | 9 | 337 | 0.0 | 8.0 | 0.00 | 0.33 | 0.00 | 90 | 1013.4 |
| 20260507065517 | 9 | 336 | 3.2 | 8.0 | 0.00 | 0.33 | 0.00 | 90 | 1013.4 |
| 20260507065018 | 9 | 338 | 3.2 | 9.7 | 0.00 | 0.33 | 0.00 | 90 | 1013.4 |
| 20260507064516 | 9 | 338 | 4.8 | 9.7 | 0.00 | 0.33 | 0.00 | 89 | 1013.4 |
| 20260507064020 | 9 | 338 | 3.2 | 8.0 | 0.00 | 0.33 | 0.00 | 89 | 1013.2 |
| 20260507063514 | 9 | 338 | 0.0 | 8.0 | 0.00 | 0.33 | 0.00 | 89 | 1013.1 |
| 20260507063013 | 9 | 336 | 1.6 | 8.0 | 0.00 | 0.33 | 0.00 | 89 | 1013.0 |
| 20260507062516 | 9 | 335 | 1.6 | 6.4 | 0.00 | 0.33 | 0.00 | 89 | 1013.0 |
| 20260507062013 | 9 | 335 | 0.0 | 12.9 | 0.00 | 0.33 | 0.00 | 89 | 1012.9 |
| 20260507061514 | 9 | 335 | 3.2 | 12.9 | 0.00 | 0.33 | 0.00 | 89 | 1012.9 |
| 20260507061011 | 9 | 331 | 1.6 | 8.0 | 0.00 | 0.33 | 0.00 | 89 | 1012.8 |
| 20260507060511 | 9 | 327 | 1.6 | 8.0 | 0.00 | 0.33 | 0.00 | 89 | 1012.7 |
| 20260507060014 | 9 | 329 | 0.0 | 6.4 | 0.00 | 0.33 | 0.00 | 90 | 1012.7 |
| 20260507055511 | 9 | 329 | 0.0 | 8.0 | 0.00 | 0.33 | 0.00 | 90 | 1012.6 |
| 20260507055014 | 9 | 329 | 1.6 | 8.0 | 0.00 | 0.33 | 0.00 | 90 | 1012.5 |
| 20260507054511 | 9 | 329 | 1.6 | 8.0 | 0.00 | 0.33 | 0.00 | 90 | 1012.5 |
| 20260507054014 | 9 | 329 | 0.0 | 8.0 | 0.00 | 0.33 | 0.00 | 90 | 1012.3 |
| 20260507053509 | 9 | 328 | 1.6 | 8.0 | 0.00 | 0.33 | 0.00 | 90 | 1012.3 |
| 20260507053012 | 9 | 328 | 1.6 | 8.0 | 0.00 | 0.33 | 0.00 | 91 | 1012.3 |
| 20260507052510 | 9 | 325 | 1.6 | 6.4 | 0.00 | 0.33 | 0.00 | 91 | 1012.2 |
| 20260507052007 | 9 | 325 | 0.0 | 6.4 | 0.00 | 0.33 | 0.00 | 91 | 1012.2 |
| 20260507051507 | 9 | 332 | 1.6 | 6.4 | 0.00 | 0.33 | 0.00 | 91 | 1011.9 |
| 20260507051007 | 9 | 332 | 0.0 | 6.4 | 0.00 | 0.33 | 0.00 | 91 | 1012.0 |
| 20260507050506 | 9 | 331 | 1.6 | 6.4 | 0.00 | 0.33 | 0.00 | 91 | 1011.9 |
| 20260507050006 | 9 | 336 | 1.6 | 6.4 | 0.00 | 0.33 | 0.00 | 92 | 1011.8 |
| 20260507045507 | 8 | 336 | 0.0 | 6.4 | 0.00 | 0.33 | 0.00 | 92 | 1011.8 |
| 20260507045007 | 8 | 336 | 1.6 | 9.7 | 0.00 | 0.33 | 0.00 | 92 | 1011.7 |
| 20260507044503 | 8 | 336 | 1.6 | 9.7 | 0.00 | 0.33 | 0.00 | 92 | 1011.6 |